Thomson Spirit — 9HA2336 — position and weather

sailwx.info

Track history (hours):
 
Tides and Currents Weather Stations Pressure Air Temp Water Temp Dewpoint Dewpoint Depression Visibility Wind Speed Wind Dir Waves Ship Positions

Thomson Spirit

Last reported at 2017-Jul-18 18:34 UTC. Time now 2017-Jul-20 14:42 UTC.
Position N 44°19' E 014°45'.

Length 214 m; draft 8 m.

Type: Passenger vessel. MMSI: 248368000.

Date/timePositionNaut miles runAvg speedWind from/ knotsBaromVisibWave heightAir tempDewpointWater temp
2017-Jul-18 18:34N 44°19' E 014°45'1 9.1
2017-Jul-18 18:28N 44°18' E 014°47'28 1.6
2017-Jul-18 01:15N 44°30' E 014°12'414.2
2017-Jul-18 01:00N 44°32' E 014°07'714.2
2017-Jul-18 00:30N 44°36' E 013°59'714.5
2017-Jul-18 00:00N 44°40' E 013°50'714.2
2017-Jul-17 23:29N 44°45' E 013°43'714.3
2017-Jul-17 23:00N 44°50' E 013°37'714.1
2017-Jul-17 22:30N 44°56' E 013°31'714.1
2017-Jul-17 22:00N 45°00' E 013°23'714.1
2017-Jul-17 21:31N 45°04' E 013°14'714.1
2017-Jul-17 21:00N 45°08' E 013°06'713.4
2017-Jul-17 20:30N 45°14' E 013°02'612.7
2017-Jul-17 20:00N 45°20' E 012°59'612.3
2017-Jul-17 19:30N 45°21' E 012°51'612.5
2017-Jul-17 19:00N 45°21' E 012°42'612.4
2017-Jul-17 18:30N 45°22' E 012°33'612.4
2017-Jul-17 18:00N 45°25' E 012°26'3 6.6
2017-Jul-17 17:31N 45°26' E 012°21'2 3.1
2017-Jul-17 16:58N 45°26' E 012°18'0 0.0
2017-Jul-17 16:28N 45°26' E 012°18'0 0.0
2017-Jul-17 15:58N 45°26' E 012°18'0 0.0
2017-Jul-17 15:28N 45°26' E 012°18'0 0.0
2017-Jul-17 14:58N 45°26' E 012°18'0 0.0
2017-Jul-17 14:28N 45°26' E 012°18'0 0.0
2017-Jul-17 13:58N 45°26' E 012°18'0 0.0
2017-Jul-17 13:28N 45°26' E 012°18'0 0.0
2017-Jul-17 12:58N 45°26' E 012°18'0 0.0
2017-Jul-17 12:28N 45°26' E 012°18'0 0.0
2017-Jul-17 11:58N 45°26' E 012°18'0 0.0
2017-Jul-17 11:28N 45°26' E 012°18'0 0.0
2017-Jul-17 10:58N 45°26' E 012°18'0 0.0
2017-Jul-17 10:28N 45°26' E 012°18'0 0.0
2017-Jul-17 09:58N 45°26' E 012°18'0 0.0
2017-Jul-17 09:28N 45°26' E 012°18'0 0.0
2017-Jul-17 08:58N 45°26' E 012°18'0 0.0
2017-Jul-17 08:28N 45°26' E 012°18'0 0.0
2017-Jul-17 07:58N 45°26' E 012°18'0 0.0
2017-Jul-17 07:28N 45°26' E 012°18'0 0.0
2017-Jul-17 07:00N 45°26' E 012°18'0 0.0
2017-Jul-17 06:31N 45°26' E 012°18'0 0.0
2017-Jul-17 06:00N 45°26' E 012°18'0 0.1
2017-Jul-17 05:30N 45°26' E 012°18'3 5.0
2017-Jul-17 05:00N 45°25' E 012°22'4 7.5
2017-Jul-17 04:30N 45°25' E 012°27'4 8.4
2017-Jul-17 04:00N 45°23' E 012°32'5 9.7
2017-Jul-17 03:30N 45°22' E 012°39'5 9.6
2017-Jul-17 03:00N 45°22' E 012°46'510.0
2017-Jul-17 02:30N 45°23' E 012°53'510.2
2017-Jul-17 02:00N 45°23' E 013°01'5 9.8
2017-Jul-17 01:30N 45°23' E 013°08'5 9.3
2017-Jul-17 01:00N 45°19' E 013°09'5 9.4
2017-Jul-17 00:30N 45°14' E 013°11'5 9.7
2017-Jul-17 00:00N 45°09' E 013°13'510.2
2017-Jul-16 23:30N 45°06' E 013°19'510.2
2017-Jul-16 23:00N 45°03' E 013°25'510.2
2017-Jul-16 22:30N 45°00' E 013°31'510.1
2017-Jul-16 22:00N 44°57' E 013°36'3 6.0
2017-Jul-16 21:30N 44°57' E 013°41'0 0.5
2017-Jul-16 21:00N 44°57' E 013°41'0 0.5
2017-Jul-16 20:30N 44°58' E 013°41'0 0.9
2017-Jul-16 20:01N 44°57' E 013°41'714.0
2017-Jul-16 19:31N 45°00' E 013°32'1 1.7
2017-Jul-16 19:00N 44°60' E 013°31'3 5.5
2017-Jul-16 18:30N 44°58' E 013°34'3 5.3
2017-Jul-16 18:01N 44°56' E 013°37'3 6.0
2017-Jul-16 17:30N 44°54' E 013°41'3 5.7
2017-Jul-16 17:01N 44°53' E 013°44'3 5.3
2017-Jul-16 16:27N 44°53' E 013°48'0 0.0
2017-Jul-16 04:56N 44°53' E 013°48'410.4
2017-Jul-16 04:31N 44°54' E 013°41'713.8
2017-Jul-16 04:00N 44°57' E 013°33'713.4
2017-Jul-16 03:30N 45°01' E 013°25'713.6
2017-Jul-16 03:00N 45°04' E 013°16'714.1
2017-Jul-16 02:30N 45°07' E 013°08'5 9.0
2017-Jul-16 02:00N 45°11' E 013°05'4 7.8
2017-Jul-16 01:30N 45°15' E 013°03'4 7.7
2017-Jul-16 01:00N 45°19' E 013°02'4 7.1
2017-Jul-16 00:30N 45°22' E 013°03'4 7.8
2017-Jul-16 00:00N 45°25' E 013°06'4 7.9
2017-Jul-15 23:30N 45°28' E 013°10'4 8.0
2017-Jul-15 23:00N 45°31' E 013°14'4 8.0
2017-Jul-15 22:30N 45°34' E 013°18'4 8.3
2017-Jul-15 22:00N 45°35' E 013°24'4 8.4
2017-Jul-15 21:30N 45°37' E 013°29'4 8.4
2017-Jul-15 21:00N 45°38' E 013°35'4 8.6
2017-Jul-15 20:30N 45°35' E 013°40'4 6.4
2017-Jul-15 19:57N 45°33' E 013°44'0 0.0
2017-Jul-15 19:27N 45°33' E 013°44'0 0.0
2017-Jul-15 18:51N 45°33' E 013°44'0 0.0
2017-Jul-15 18:21N 45°33' E 013°44'0 0.0
2017-Jul-15 17:57N 45°33' E 013°44'0 0.0
2017-Jul-15 17:29N 45°33' E 013°44'0 0.0
2017-Jul-15 16:57N 45°33' E 013°44'0 0.0
2017-Jul-15 16:29N 45°33' E 013°44'0 0.0
2017-Jul-15 15:57N 45°33' E 013°44'0 0.0
2017-Jul-15 15:29N 45°33' E 013°44'0 0.0
2017-Jul-15 14:57N 45°33' E 013°44'0 0.0
2017-Jul-15 13:59N 45°33' E 013°44'0 0.0
2017-Jul-15 13:29N 45°33' E 013°44'0 0.0
2017-Jul-15 12:57N 45°33' E 013°44'0 0.0
2017-Jul-15 12:29N 45°33' E 013°44'0 0.0
2017-Jul-15 11:59N 45°33' E 013°44'0 0.0
2017-Jul-15 11:29N 45°33' E 013°44'0 0.0
2017-Jul-15 10:53N 45°33' E 013°44'0 0.0
2017-Jul-15 10:29N 45°33' E 013°44'0 0.0
2017-Jul-15 09:59N 45°33' E 013°44'0 0.0
2017-Jul-15 09:29N 45°33' E 013°44'0 0.0
2017-Jul-15 08:59N 45°33' E 013°44'0 0.0
2017-Jul-15 08:29N 45°33' E 013°44'0 0.0
2017-Jul-15 07:59N 45°33' E 013°44'0 0.0
2017-Jul-15 07:29N 45°33' E 013°44'0 0.0
2017-Jul-15 06:53N 45°33' E 013°44'0 0.0
2017-Jul-15 06:29N 45°33' E 013°44'0 0.0
2017-Jul-15 05:56N 45°33' E 013°44'0 0.0
2017-Jul-15 05:30N 45°33' E 013°44'2 3.2
2017-Jul-15 05:00N 45°34' E 013°42'5 9.9
2017-Jul-15 04:30N 45°35' E 013°35'5 9.3
2017-Jul-15 04:00N 45°33' E 013°29'5 9.9
2017-Jul-15 03:30N 45°30' E 013°23'5 9.7
2017-Jul-15 03:00N 45°27' E 013°17'5 9.5
2017-Jul-15 02:30N 45°24' E 013°12'5 9.6
2017-Jul-15 02:00N 45°20' E 013°13'714.2
2017-Jul-15 01:30N 45°13' E 013°15'815.7
2017-Jul-15 01:00N 45°05' E 013°19'815.7
2017-Jul-15 00:30N 44°58' E 013°23'815.7
2017-Jul-15 00:00N 44°51' E 013°28'815.8
2017-Jul-14 23:30N 44°45' E 013°34'815.4
2017-Jul-14 23:00N 44°38' E 013°40'714.9
2017-Jul-14 22:30N 44°32' E 013°46'714.8
2017-Jul-14 22:00N 44°25' E 013°51'1314.9
2017-Jul-14 21:09N 44°15' E 014°01'214.8
2017-Jul-14 21:00N 44°13' E 014°02'  
Track history (hours):
 
Tides and Currents Weather Stations Pressure Air Temp Water Temp Dewpoint Dewpoint Depression Visibility Wind Speed Wind Dir Waves Ship Positions

Thomson Spirit

Last reported at 2017-Jul-18 18:34 UTC. Time now 2017-Jul-20 14:42 UTC.
Position N 44°19' E 014°45'.

Length 214 m; draft 8 m.

Type: Passenger vessel. MMSI: 248368000.

Date/timePositionNaut miles runAvg speedWind from/ knotsBaromVisibWave heightAir tempDewpointWater temp
2017-Jul-18 18:34N 44°19' E 014°45'1 9.1
2017-Jul-18 18:28N 44°18' E 014°47'28 1.6
2017-Jul-18 01:15N 44°30' E 014°12'414.2
2017-Jul-18 01:00N 44°32' E 014°07'714.2
2017-Jul-18 00:30N 44°36' E 013°59'714.5
2017-Jul-18 00:00N 44°40' E 013°50'714.2
2017-Jul-17 23:29N 44°45' E 013°43'714.3
2017-Jul-17 23:00N 44°50' E 013°37'714.1
2017-Jul-17 22:30N 44°56' E 013°31'714.1
2017-Jul-17 22:00N 45°00' E 013°23'714.1
2017-Jul-17 21:31N 45°04' E 013°14'714.1
2017-Jul-17 21:00N 45°08' E 013°06'713.4
2017-Jul-17 20:30N 45°14' E 013°02'612.7
2017-Jul-17 20:00N 45°20' E 012°59'612.3
2017-Jul-17 19:30N 45°21' E 012°51'612.5
2017-Jul-17 19:00N 45°21' E 012°42'612.4
2017-Jul-17 18:30N 45°22' E 012°33'612.4
2017-Jul-17 18:00N 45°25' E 012°26'3 6.6
2017-Jul-17 17:31N 45°26' E 012°21'2 3.1
2017-Jul-17 16:58N 45°26' E 012°18'0 0.0
2017-Jul-17 16:28N 45°26' E 012°18'0 0.0
2017-Jul-17 15:58N 45°26' E 012°18'0 0.0
2017-Jul-17 15:28N 45°26' E 012°18'0 0.0
2017-Jul-17 14:58N 45°26' E 012°18'0 0.0
2017-Jul-17 14:28N 45°26' E 012°18'0 0.0
2017-Jul-17 13:58N 45°26' E 012°18'0 0.0
2017-Jul-17 13:28N 45°26' E 012°18'0 0.0
2017-Jul-17 12:58N 45°26' E 012°18'0 0.0
2017-Jul-17 12:28N 45°26' E 012°18'0 0.0
2017-Jul-17 11:58N 45°26' E 012°18'0 0.0
2017-Jul-17 11:28N 45°26' E 012°18'0 0.0
2017-Jul-17 10:58N 45°26' E 012°18'0 0.0
2017-Jul-17 10:28N 45°26' E 012°18'0 0.0
2017-Jul-17 09:58N 45°26' E 012°18'0 0.0
2017-Jul-17 09:28N 45°26' E 012°18'0 0.0
2017-Jul-17 08:58N 45°26' E 012°18'0 0.0
2017-Jul-17 08:28N 45°26' E 012°18'0 0.0
2017-Jul-17 07:58N 45°26' E 012°18'0 0.0
2017-Jul-17 07:28N 45°26' E 012°18'0 0.0
2017-Jul-17 07:00N 45°26' E 012°18'0 0.0
2017-Jul-17 06:31N 45°26' E 012°18'0 0.0
2017-Jul-17 06:00N 45°26' E 012°18'0 0.1
2017-Jul-17 05:30N 45°26' E 012°18'3 5.0
2017-Jul-17 05:00N 45°25' E 012°22'4 7.5
2017-Jul-17 04:30N 45°25' E 012°27'4 8.4
2017-Jul-17 04:00N 45°23' E 012°32'5 9.7
2017-Jul-17 03:30N 45°22' E 012°39'5 9.6
2017-Jul-17 03:00N 45°22' E 012°46'510.0
2017-Jul-17 02:30N 45°23' E 012°53'510.2
2017-Jul-17 02:00N 45°23' E 013°01'5 9.8
2017-Jul-17 01:30N 45°23' E 013°08'5 9.3
2017-Jul-17 01:00N 45°19' E 013°09'5 9.4
2017-Jul-17 00:30N 45°14' E 013°11'5 9.7
2017-Jul-17 00:00N 45°09' E 013°13'510.2
2017-Jul-16 23:30N 45°06' E 013°19'510.2
2017-Jul-16 23:00N 45°03' E 013°25'510.2
2017-Jul-16 22:30N 45°00' E 013°31'510.1
2017-Jul-16 22:00N 44°57' E 013°36'3 6.0
2017-Jul-16 21:30N 44°57' E 013°41'0 0.5
2017-Jul-16 21:00N 44°57' E 013°41'0 0.5
2017-Jul-16 20:30N 44°58' E 013°41'0 0.9
2017-Jul-16 20:01N 44°57' E 013°41'714.0
2017-Jul-16 19:31N 45°00' E 013°32'1 1.7
2017-Jul-16 19:00N 44°60' E 013°31'3 5.5
2017-Jul-16 18:30N 44°58' E 013°34'3 5.3
2017-Jul-16 18:01N 44°56' E 013°37'3 6.0
2017-Jul-16 17:30N 44°54' E 013°41'3 5.7
2017-Jul-16 17:01N 44°53' E 013°44'3 5.3
2017-Jul-16 16:27N 44°53' E 013°48'0 0.0
2017-Jul-16 04:56N 44°53' E 013°48'410.4
2017-Jul-16 04:31N 44°54' E 013°41'713.8
2017-Jul-16 04:00N 44°57' E 013°33'713.4
2017-Jul-16 03:30N 45°01' E 013°25'713.6
2017-Jul-16 03:00N 45°04' E 013°16'714.1
2017-Jul-16 02:30N 45°07' E 013°08'5 9.0
2017-Jul-16 02:00N 45°11' E 013°05'4 7.8
2017-Jul-16 01:30N 45°15' E 013°03'4 7.7
2017-Jul-16 01:00N 45°19' E 013°02'4 7.1
2017-Jul-16 00:30N 45°22' E 013°03'4 7.8
2017-Jul-16 00:00N 45°25' E 013°06'4 7.9
2017-Jul-15 23:30N 45°28' E 013°10'4 8.0
2017-Jul-15 23:00N 45°31' E 013°14'4 8.0
2017-Jul-15 22:30N 45°34' E 013°18'4 8.3
2017-Jul-15 22:00N 45°35' E 013°24'4 8.4
2017-Jul-15 21:30N 45°37' E 013°29'4 8.4
2017-Jul-15 21:00N 45°38' E 013°35'4 8.6
2017-Jul-15 20:30N 45°35' E 013°40'4 6.4
2017-Jul-15 19:57N 45°33' E 013°44'0 0.0
2017-Jul-15 19:27N 45°33' E 013°44'0 0.0
2017-Jul-15 18:51N 45°33' E 013°44'0 0.0
2017-Jul-15 18:21N 45°33' E 013°44'0 0.0
2017-Jul-15 17:57N 45°33' E 013°44'0 0.0
2017-Jul-15 17:29N 45°33' E 013°44'0 0.0
2017-Jul-15 16:57N 45°33' E 013°44'0 0.0
2017-Jul-15 16:29N 45°33' E 013°44'0 0.0
2017-Jul-15 15:57N 45°33' E 013°44'0 0.0
2017-Jul-15 15:29N 45°33' E 013°44'0 0.0
2017-Jul-15 14:57N 45°33' E 013°44'0 0.0
2017-Jul-15 13:59N 45°33' E 013°44'0 0.0
2017-Jul-15 13:29N 45°33' E 013°44'0 0.0
2017-Jul-15 12:57N 45°33' E 013°44'0 0.0
2017-Jul-15 12:29N 45°33' E 013°44'0 0.0
2017-Jul-15 11:59N 45°33' E 013°44'0 0.0
2017-Jul-15 11:29N 45°33' E 013°44'0 0.0
2017-Jul-15 10:53N 45°33' E 013°44'0 0.0
2017-Jul-15 10:29N 45°33' E 013°44'0 0.0
2017-Jul-15 09:59N 45°33' E 013°44'0 0.0
2017-Jul-15 09:29N 45°33' E 013°44'0 0.0
2017-Jul-15 08:59N 45°33' E 013°44'0 0.0
2017-Jul-15 08:29N 45°33' E 013°44'0 0.0
2017-Jul-15 07:59N 45°33' E 013°44'0 0.0
2017-Jul-15 07:29N 45°33' E 013°44'0 0.0
2017-Jul-15 06:53N 45°33' E 013°44'0 0.0
2017-Jul-15 06:29N 45°33' E 013°44'0 0.0
2017-Jul-15 05:56N 45°33' E 013°44'0 0.0
2017-Jul-15 05:30N 45°33' E 013°44'2 3.2
2017-Jul-15 05:00N 45°34' E 013°42'5 9.9
2017-Jul-15 04:30N 45°35' E 013°35'5 9.3
2017-Jul-15 04:00N 45°33' E 013°29'5 9.9
2017-Jul-15 03:30N 45°30' E 013°23'5 9.7
2017-Jul-15 03:00N 45°27' E 013°17'5 9.5
2017-Jul-15 02:30N 45°24' E 013°12'5 9.6
2017-Jul-15 02:00N 45°20' E 013°13'714.2
2017-Jul-15 01:30N 45°13' E 013°15'815.7
2017-Jul-15 01:00N 45°05' E 013°19'815.7
2017-Jul-15 00:30N 44°58' E 013°23'815.7
2017-Jul-15 00:00N 44°51' E 013°28'815.8
2017-Jul-14 23:30N 44°45' E 013°34'815.4
2017-Jul-14 23:00N 44°38' E 013°40'714.9
2017-Jul-14 22:30N 44°32' E 013°46'714.8
2017-Jul-14 22:00N 44°25' E 013°51'1314.9
2017-Jul-14 21:09N 44°15' E 014°01'214.8
2017-Jul-14 21:00N 44°13' E 014°02'  

Dump ship's entire track history